sensor_id;sensor_type;location;lat;lon;timestamp;P1;durP1;ratioP1;P2;durP2;ratioP2
13685;SDS011;6915;48.296;8.874;2022-12-11T00:01:12;22.43;;;14.93;;
13685;SDS011;6915;48.296;8.874;2022-12-11T00:03:42;24.00;;;15.83;;
13685;SDS011;6915;48.296;8.874;2022-12-11T00:06:12;20.33;;;14.73;;
13685;SDS011;6915;48.296;8.874;2022-12-11T00:08:42;25.60;;;15.77;;
13685;SDS011;6915;48.296;8.874;2022-12-11T00:11:12;20.27;;;14.20;;
13685;SDS011;6915;48.296;8.874;2022-12-11T00:13:43;23.40;;;15.53;;
13685;SDS011;6915;48.296;8.874;2022-12-11T00:16:11;22.60;;;15.23;;
13685;SDS011;6915;48.296;8.874;2022-12-11T00:18:40;22.43;;;15.73;;
13685;SDS011;6915;48.296;8.874;2022-12-11T00:21:10;20.93;;;14.83;;
13685;SDS011;6915;48.296;8.874;2022-12-11T00:23:40;24.90;;;15.33;;
13685;SDS011;6915;48.296;8.874;2022-12-11T00:26:10;21.33;;;15.00;;
13685;SDS011;6915;48.296;8.874;2022-12-11T00:28:40;20.63;;;13.83;;
13685;SDS011;6915;48.296;8.874;2022-12-11T00:31:10;20.17;;;13.87;;
13685;SDS011;6915;48.296;8.874;2022-12-11T00:33:41;19.13;;;13.17;;
13685;SDS011;6915;48.296;8.874;2022-12-11T00:36:13;17.40;;;12.37;;
13685;SDS011;6915;48.296;8.874;2022-12-11T00:38:43;18.40;;;12.33;;
13685;SDS011;6915;48.296;8.874;2022-12-11T00:41:12;18.63;;;13.00;;
13685;SDS011;6915;48.296;8.874;2022-12-11T00:43:43;15.30;;;11.23;;
13685;SDS011;6915;48.296;8.874;2022-12-11T00:46:12;16.93;;;11.70;;
13685;SDS011;6915;48.296;8.874;2022-12-11T00:48:40;17.47;;;11.93;;
13685;SDS011;6915;48.296;8.874;2022-12-11T00:51:10;18.60;;;12.63;;
13685;SDS011;6915;48.296;8.874;2022-12-11T00:53:39;16.07;;;11.80;;
13685;SDS011;6915;48.296;8.874;2022-12-11T00:56:08;16.67;;;11.47;;
13685;SDS011;6915;48.296;8.874;2022-12-11T00:58:36;16.10;;;11.27;;
13685;SDS011;6915;48.296;8.874;2022-12-11T01:01:07;15.90;;;11.47;;
13685;SDS011;6915;48.296;8.874;2022-12-11T01:03:37;14.83;;;10.93;;
13685;SDS011;6915;48.296;8.874;2022-12-11T01:06:06;14.17;;;10.13;;
13685;SDS011;6915;48.296;8.874;2022-12-11T01:08:38;13.43;;;9.37;;
13685;SDS011;6915;48.296;8.874;2022-12-11T01:11:08;14.10;;;10.10;;
13685;SDS011;6915;48.296;8.874;2022-12-11T01:13:39;15.10;;;10.43;;
13685;SDS011;6915;48.296;8.874;2022-12-11T01:16:10;14.17;;;10.30;;
13685;SDS011;6915;48.296;8.874;2022-12-11T01:18:41;15.57;;;10.60;;
13685;SDS011;6915;48.296;8.874;2022-12-11T01:21:11;16.13;;;10.53;;
13685;SDS011;6915;48.296;8.874;2022-12-11T01:23:40;15.07;;;10.13;;
13685;SDS011;6915;48.296;8.874;2022-12-11T01:26:10;15.03;;;10.43;;
13685;SDS011;6915;48.296;8.874;2022-12-11T01:28:41;13.13;;;9.33;;
13685;SDS011;6915;48.296;8.874;2022-12-11T01:31:12;14.73;;;9.90;;
13685;SDS011;6915;48.296;8.874;2022-12-11T01:33:42;16.40;;;10.57;;
13685;SDS011;6915;48.296;8.874;2022-12-11T01:36:12;14.17;;;9.73;;
13685;SDS011;6915;48.296;8.874;2022-12-11T01:38:43;15.10;;;10.23;;
13685;SDS011;6915;48.296;8.874;2022-12-11T01:41:14;14.33;;;9.77;;
13685;SDS011;6915;48.296;8.874;2022-12-11T01:43:56;14.40;;;9.87;;
13685;SDS011;6915;48.296;8.874;2022-12-11T01:46:30;15.17;;;10.03;;
13685;SDS011;6915;48.296;8.874;2022-12-11T01:49:02;14.30;;;10.30;;
13685;SDS011;6915;48.296;8.874;2022-12-11T01:51:35;14.43;;;9.57;;
13685;SDS011;6915;48.296;8.874;2022-12-11T01:54:08;15.03;;;10.20;;
13685;SDS011;6915;48.296;8.874;2022-12-11T01:56:41;17.27;;;10.10;;
13685;SDS011;6915;48.296;8.874;2022-12-11T01:59:12;14.53;;;9.53;;
13685;SDS011;6915;48.296;8.874;2022-12-11T02:01:46;15.67;;;10.33;;
13685;SDS011;6915;48.296;8.874;2022-12-11T02:04:20;17.20;;;11.20;;
13685;SDS011;6915;48.296;8.874;2022-12-11T02:06:50;14.97;;;10.33;;
13685;SDS011;6915;48.296;8.874;2022-12-11T02:09:20;18.27;;;11.63;;
13685;SDS011;6915;48.296;8.874;2022-12-11T02:11:54;16.93;;;11.10;;
13685;SDS011;6915;48.296;8.874;2022-12-11T02:14:27;17.67;;;10.60;;
13685;SDS011;6915;48.296;8.874;2022-12-11T02:17:02;16.80;;;11.00;;
13685;SDS011;6915;48.296;8.874;2022-12-11T02:19:43;17.97;;;10.67;;
13685;SDS011;6915;48.296;8.874;2022-12-11T02:22:26;16.67;;;10.43;;
13685;SDS011;6915;48.296;8.874;2022-12-11T02:25:08;16.87;;;10.53;;
13685;SDS011;6915;48.296;8.874;2022-12-11T02:27:43;15.67;;;9.77;;
13685;SDS011;6915;48.296;8.874;2022-12-11T02:30:22;17.23;;;10.77;;
13685;SDS011;6915;48.296;8.874;2022-12-11T02:32:52;17.00;;;9.70;;
13685;SDS011;6915;48.296;8.874;2022-12-11T02:35:24;14.20;;;9.20;;
13685;SDS011;6915;48.296;8.874;2022-12-11T02:37:56;15.70;;;10.27;;
13685;SDS011;6915;48.296;8.874;2022-12-11T02:40:31;14.20;;;9.47;;
13685;SDS011;6915;48.296;8.874;2022-12-11T02:43:04;15.13;;;9.47;;
13685;SDS011;6915;48.296;8.874;2022-12-11T02:45:38;16.13;;;9.83;;
13685;SDS011;6915;48.296;8.874;2022-12-11T02:48:09;14.10;;;8.93;;
13685;SDS011;6915;48.296;8.874;2022-12-11T02:50:41;14.40;;;9.30;;
13685;SDS011;6915;48.296;8.874;2022-12-11T02:53:12;14.50;;;9.33;;
13685;SDS011;6915;48.296;8.874;2022-12-11T02:55:46;12.70;;;8.93;;
13685;SDS011;6915;48.296;8.874;2022-12-11T02:58:18;13.03;;;8.43;;
13685;SDS011;6915;48.296;8.874;2022-12-11T03:00:53;14.47;;;8.53;;
13685;SDS011;6915;48.296;8.874;2022-12-11T03:03:22;14.07;;;9.30;;
13685;SDS011;6915;48.296;8.874;2022-12-11T03:05:51;13.53;;;8.37;;
13685;SDS011;6915;48.296;8.874;2022-12-11T03:08:20;14.23;;;8.90;;
13685;SDS011;6915;48.296;8.874;2022-12-11T03:10:50;12.43;;;8.27;;
13685;SDS011;6915;48.296;8.874;2022-12-11T03:13:19;13.63;;;8.73;;
13685;SDS011;6915;48.296;8.874;2022-12-11T03:15:51;14.00;;;9.20;;
13685;SDS011;6915;48.296;8.874;2022-12-11T03:18:31;12.80;;;8.50;;
13685;SDS011;6915;48.296;8.874;2022-12-11T03:21:06;13.30;;;8.40;;
13685;SDS011;6915;48.296;8.874;2022-12-11T03:23:41;13.47;;;8.20;;
13685;SDS011;6915;48.296;8.874;2022-12-11T03:26:15;12.00;;;7.93;;
13685;SDS011;6915;48.296;8.874;2022-12-11T03:28:46;13.03;;;8.30;;
13685;SDS011;6915;48.296;8.874;2022-12-11T03:31:22;14.00;;;8.30;;
13685;SDS011;6915;48.296;8.874;2022-12-11T03:33:52;14.03;;;9.13;;
13685;SDS011;6915;48.296;8.874;2022-12-11T03:36:26;12.23;;;8.30;;
13685;SDS011;6915;48.296;8.874;2022-12-11T03:38:59;14.43;;;9.33;;
13685;SDS011;6915;48.296;8.874;2022-12-11T03:41:32;16.23;;;9.03;;
13685;SDS011;6915;48.296;8.874;2022-12-11T03:44:02;14.30;;;9.17;;
13685;SDS011;6915;48.296;8.874;2022-12-11T03:46:35;14.23;;;8.93;;
13685;SDS011;6915;48.296;8.874;2022-12-11T03:49:06;14.53;;;9.60;;
13685;SDS011;6915;48.296;8.874;2022-12-11T03:51:40;16.33;;;9.57;;
13685;SDS011;6915;48.296;8.874;2022-12-11T03:54:12;15.93;;;9.60;;
13685;SDS011;6915;48.296;8.874;2022-12-11T03:56:42;13.70;;;9.07;;
13685;SDS011;6915;48.296;8.874;2022-12-11T03:59:13;14.93;;;9.50;;
13685;SDS011;6915;48.296;8.874;2022-12-11T04:01:44;15.90;;;9.43;;
13685;SDS011;6915;48.296;8.874;2022-12-11T04:04:13;16.57;;;9.50;;
13685;SDS011;6915;48.296;8.874;2022-12-11T04:06:43;14.10;;;8.73;;
13685;SDS011;6915;48.296;8.874;2022-12-11T04:09:12;14.67;;;9.40;;
13685;SDS011;6915;48.296;8.874;2022-12-11T04:11:42;12.90;;;8.30;;
13685;SDS011;6915;48.296;8.874;2022-12-11T04:14:12;15.53;;;9.23;;
13685;SDS011;6915;48.296;8.874;2022-12-11T04:17:00;15.13;;;9.80;;
13685;SDS011;6915;48.296;8.874;2022-12-11T04:19:30;14.37;;;9.53;;
13685;SDS011;6915;48.296;8.874;2022-12-11T04:22:17;16.30;;;9.80;;
13685;SDS011;6915;48.296;8.874;2022-12-11T04:25:04;15.03;;;9.40;;
13685;SDS011;6915;48.296;8.874;2022-12-11T04:27:34;15.73;;;9.60;;
13685;SDS011;6915;48.296;8.874;2022-12-11T04:30:18;17.07;;;9.73;;
13685;SDS011;6915;48.296;8.874;2022-12-11T04:32:50;17.17;;;9.87;;
13685;SDS011;6915;48.296;8.874;2022-12-11T04:35:20;16.00;;;9.17;;
13685;SDS011;6915;48.296;8.874;2022-12-11T04:37:48;18.03;;;10.33;;
13685;SDS011;6915;48.296;8.874;2022-12-11T04:40:18;14.10;;;9.33;;
13685;SDS011;6915;48.296;8.874;2022-12-11T04:42:48;15.77;;;9.57;;
13685;SDS011;6915;48.296;8.874;2022-12-11T04:45:17;17.30;;;10.60;;
13685;SDS011;6915;48.296;8.874;2022-12-11T04:47:46;15.43;;;9.60;;
13685;SDS011;6915;48.296;8.874;2022-12-11T04:50:17;15.87;;;9.20;;
13685;SDS011;6915;48.296;8.874;2022-12-11T04:52:46;16.53;;;9.83;;
13685;SDS011;6915;48.296;8.874;2022-12-11T04:55:15;15.87;;;9.47;;
13685;SDS011;6915;48.296;8.874;2022-12-11T04:57:43;15.40;;;9.67;;
13685;SDS011;6915;48.296;8.874;2022-12-11T05:00:12;15.80;;;9.57;;
13685;SDS011;6915;48.296;8.874;2022-12-11T05:02:41;17.63;;;10.30;;
13685;SDS011;6915;48.296;8.874;2022-12-11T05:05:10;15.93;;;10.07;;
13685;SDS011;6915;48.296;8.874;2022-12-11T05:07:41;16.63;;;9.63;;
13685;SDS011;6915;48.296;8.874;2022-12-11T05:10:10;16.77;;;9.50;;
13685;SDS011;6915;48.296;8.874;2022-12-11T05:12:38;14.30;;;9.43;;
13685;SDS011;6915;48.296;8.874;2022-12-11T05:15:07;15.30;;;9.70;;
13685;SDS011;6915;48.296;8.874;2022-12-11T05:17:37;17.93;;;10.13;;
13685;SDS011;6915;48.296;8.874;2022-12-11T05:20:06;17.80;;;9.70;;
13685;SDS011;6915;48.296;8.874;2022-12-11T05:22:36;16.67;;;10.47;;
13685;SDS011;6915;48.296;8.874;2022-12-11T05:25:07;16.73;;;9.53;;
13685;SDS011;6915;48.296;8.874;2022-12-11T05:27:37;18.40;;;10.10;;
13685;SDS011;6915;48.296;8.874;2022-12-11T05:30:06;15.73;;;9.13;;
13685;SDS011;6915;48.296;8.874;2022-12-11T05:32:34;17.93;;;9.60;;
13685;SDS011;6915;48.296;8.874;2022-12-11T05:35:03;15.80;;;9.87;;
13685;SDS011;6915;48.296;8.874;2022-12-11T05:37:33;15.37;;;9.63;;
13685;SDS011;6915;48.296;8.874;2022-12-11T05:40:02;16.93;;;9.90;;
13685;SDS011;6915;48.296;8.874;2022-12-11T05:42:34;16.60;;;9.90;;
13685;SDS011;6915;48.296;8.874;2022-12-11T05:45:03;16.20;;;9.30;;
13685;SDS011;6915;48.296;8.874;2022-12-11T05:47:31;14.57;;;8.80;;
13685;SDS011;6915;48.296;8.874;2022-12-11T05:50:00;16.17;;;9.67;;
13685;SDS011;6915;48.296;8.874;2022-12-11T05:52:30;16.67;;;9.77;;
13685;SDS011;6915;48.296;8.874;2022-12-11T05:54:59;17.10;;;9.73;;
13685;SDS011;6915;48.296;8.874;2022-12-11T05:57:28;17.10;;;9.87;;
13685;SDS011;6915;48.296;8.874;2022-12-11T05:59:58;16.53;;;9.13;;
13685;SDS011;6915;48.296;8.874;2022-12-11T06:02:27;16.80;;;9.10;;
13685;SDS011;6915;48.296;8.874;2022-12-11T06:04:56;18.30;;;9.50;;
13685;SDS011;6915;48.296;8.874;2022-12-11T06:07:24;17.20;;;10.60;;
13685;SDS011;6915;48.296;8.874;2022-12-11T06:09:53;16.07;;;9.90;;
13685;SDS011;6915;48.296;8.874;2022-12-11T06:12:22;16.23;;;9.10;;
13685;SDS011;6915;48.296;8.874;2022-12-11T06:14:51;14.63;;;8.90;;
13685;SDS011;6915;48.296;8.874;2022-12-11T06:17:22;14.47;;;9.00;;
13685;SDS011;6915;48.296;8.874;2022-12-11T06:19:50;17.13;;;9.67;;
13685;SDS011;6915;48.296;8.874;2022-12-11T06:22:19;17.30;;;9.67;;
13685;SDS011;6915;48.296;8.874;2022-12-11T06:24:47;16.40;;;8.93;;
13685;SDS011;6915;48.296;8.874;2022-12-11T06:27:16;16.57;;;9.37;;
13685;SDS011;6915;48.296;8.874;2022-12-11T06:29:45;17.07;;;10.33;;
13685;SDS011;6915;48.296;8.874;2022-12-11T06:32:14;14.97;;;9.13;;
13685;SDS011;6915;48.296;8.874;2022-12-11T06:34:44;15.83;;;10.17;;
13685;SDS011;6915;48.296;8.874;2022-12-11T06:37:13;17.40;;;10.10;;
13685;SDS011;6915;48.296;8.874;2022-12-11T06:39:42;18.77;;;9.70;;
13685;SDS011;6915;48.296;8.874;2022-12-11T06:42:10;19.73;;;10.37;;
13685;SDS011;6915;48.296;8.874;2022-12-11T06:44:42;16.90;;;10.13;;
13685;SDS011;6915;48.296;8.874;2022-12-11T06:47:13;17.40;;;10.47;;
13685;SDS011;6915;48.296;8.874;2022-12-11T06:49:44;20.17;;;10.93;;
13685;SDS011;6915;48.296;8.874;2022-12-11T06:52:12;17.80;;;10.53;;
13685;SDS011;6915;48.296;8.874;2022-12-11T06:54:41;18.93;;;10.73;;
13685;SDS011;6915;48.296;8.874;2022-12-11T06:57:10;19.80;;;10.30;;
13685;SDS011;6915;48.296;8.874;2022-12-11T06:59:39;18.47;;;10.33;;
13685;SDS011;6915;48.296;8.874;2022-12-11T07:02:08;26.20;;;13.33;;
13685;SDS011;6915;48.296;8.874;2022-12-11T07:04:38;34.93;;;18.20;;
13685;SDS011;6915;48.296;8.874;2022-12-11T07:07:09;18.73;;;11.37;;
13685;SDS011;6915;48.296;8.874;2022-12-11T07:09:38;23.77;;;13.83;;
13685;SDS011;6915;48.296;8.874;2022-12-11T07:12:07;23.50;;;13.00;;
13685;SDS011;6915;48.296;8.874;2022-12-11T07:14:36;22.13;;;13.40;;
13685;SDS011;6915;48.296;8.874;2022-12-11T07:17:05;31.90;;;16.40;;
13685;SDS011;6915;48.296;8.874;2022-12-11T07:19:33;28.90;;;14.77;;
13685;SDS011;6915;48.296;8.874;2022-12-11T07:22:02;24.37;;;13.50;;
13685;SDS011;6915;48.296;8.874;2022-12-11T07:24:32;17.40;;;10.43;;
13685;SDS011;6915;48.296;8.874;2022-12-11T07:27:01;18.83;;;10.37;;
13685;SDS011;6915;48.296;8.874;2022-12-11T07:29:30;22.77;;;12.87;;
13685;SDS011;6915;48.296;8.874;2022-12-11T07:31:58;16.03;;;10.17;;
13685;SDS011;6915;48.296;8.874;2022-12-11T07:34:27;18.27;;;10.57;;
13685;SDS011;6915;48.296;8.874;2022-12-11T07:36:56;21.50;;;11.73;;
13685;SDS011;6915;48.296;8.874;2022-12-11T07:39:25;23.83;;;12.90;;
13685;SDS011;6915;48.296;8.874;2022-12-11T07:41:55;19.57;;;10.67;;
13685;SDS011;6915;48.296;8.874;2022-12-11T07:44:23;22.80;;;11.77;;
13685;SDS011;6915;48.296;8.874;2022-12-11T07:46:52;23.83;;;13.00;;
13685;SDS011;6915;48.296;8.874;2022-12-11T07:49:21;27.90;;;14.23;;
13685;SDS011;6915;48.296;8.874;2022-12-11T07:51:49;55.53;;;20.37;;
13685;SDS011;6915;48.296;8.874;2022-12-11T07:54:18;36.53;;;16.77;;
13685;SDS011;6915;48.296;8.874;2022-12-11T07:56:46;37.63;;;16.70;;
13685;SDS011;6915;48.296;8.874;2022-12-11T07:59:16;39.70;;;18.77;;
13685;SDS011;6915;48.296;8.874;2022-12-11T08:01:46;27.47;;;14.20;;
13685;SDS011;6915;48.296;8.874;2022-12-11T08:04:14;20.87;;;12.50;;
13685;SDS011;6915;48.296;8.874;2022-12-11T08:06:43;20.83;;;12.27;;
13685;SDS011;6915;48.296;8.874;2022-12-11T08:09:12;21.03;;;11.57;;
13685;SDS011;6915;48.296;8.874;2022-12-11T08:11:40;21.37;;;11.40;;
13685;SDS011;6915;48.296;8.874;2022-12-11T08:14:09;19.17;;;11.33;;
13685;SDS011;6915;48.296;8.874;2022-12-11T08:16:39;15.60;;;9.27;;
13685;SDS011;6915;48.296;8.874;2022-12-11T08:19:09;13.73;;;8.40;;
13685;SDS011;6915;48.296;8.874;2022-12-11T08:21:36;14.20;;;9.07;;
13685;SDS011;6915;48.296;8.874;2022-12-11T08:24:05;13.83;;;7.80;;
13685;SDS011;6915;48.296;8.874;2022-12-11T08:26:35;15.03;;;9.10;;
13685;SDS011;6915;48.296;8.874;2022-12-11T08:29:04;13.67;;;9.10;;
13685;SDS011;6915;48.296;8.874;2022-12-11T08:31:33;14.83;;;8.80;;
13685;SDS011;6915;48.296;8.874;2022-12-11T08:34:03;13.40;;;8.70;;
13685;SDS011;6915;48.296;8.874;2022-12-11T08:36:32;14.27;;;8.50;;
13685;SDS011;6915;48.296;8.874;2022-12-11T08:39:00;14.20;;;8.13;;
13685;SDS011;6915;48.296;8.874;2022-12-11T08:41:29;17.83;;;10.37;;
13685;SDS011;6915;48.296;8.874;2022-12-11T08:43:58;15.50;;;9.60;;
13685;SDS011;6915;48.296;8.874;2022-12-11T08:46:27;17.67;;;10.07;;
13685;SDS011;6915;48.296;8.874;2022-12-11T08:49:00;18.67;;;10.17;;
13685;SDS011;6915;48.296;8.874;2022-12-11T08:51:30;18.60;;;11.10;;
13685;SDS011;6915;48.296;8.874;2022-12-11T08:53:59;32.93;;;18.03;;
13685;SDS011;6915;48.296;8.874;2022-12-11T08:56:28;30.07;;;16.57;;
13685;SDS011;6915;48.296;8.874;2022-12-11T08:58:58;22.20;;;13.13;;
13685;SDS011;6915;48.296;8.874;2022-12-11T09:01:28;48.87;;;24.83;;
13685;SDS011;6915;48.296;8.874;2022-12-11T09:03:57;89.90;;;42.27;;
13685;SDS011;6915;48.296;8.874;2022-12-11T09:06:26;113.00;;;51.43;;
13685;SDS011;6915;48.296;8.874;2022-12-11T09:08:57;67.33;;;33.07;;
13685;SDS011;6915;48.296;8.874;2022-12-11T09:11:27;23.50;;;14.00;;
13685;SDS011;6915;48.296;8.874;2022-12-11T09:13:57;22.83;;;12.73;;
13685;SDS011;6915;48.296;8.874;2022-12-11T09:16:27;22.13;;;12.63;;
13685;SDS011;6915;48.296;8.874;2022-12-11T09:18:56;18.80;;;11.73;;
13685;SDS011;6915;48.296;8.874;2022-12-11T09:21:28;20.20;;;12.17;;
13685;SDS011;6915;48.296;8.874;2022-12-11T09:23:59;22.40;;;12.77;;
13685;SDS011;6915;48.296;8.874;2022-12-11T09:26:28;20.67;;;12.40;;
13685;SDS011;6915;48.296;8.874;2022-12-11T09:28:57;22.60;;;13.67;;
13685;SDS011;6915;48.296;8.874;2022-12-11T09:31:29;21.73;;;13.47;;
13685;SDS011;6915;48.296;8.874;2022-12-11T09:34:00;22.93;;;14.07;;
13685;SDS011;6915;48.296;8.874;2022-12-11T09:36:30;17.77;;;11.70;;
13685;SDS011;6915;48.296;8.874;2022-12-11T09:39:01;23.27;;;13.53;;
13685;SDS011;6915;48.296;8.874;2022-12-11T09:41:34;20.27;;;13.23;;
13685;SDS011;6915;48.296;8.874;2022-12-11T09:46:53;22.07;;;14.07;;
13685;SDS011;6915;48.296;8.874;2022-12-11T09:49:23;28.83;;;16.73;;
13685;SDS011;6915;48.296;8.874;2022-12-11T09:51:57;28.80;;;16.57;;
13685;SDS011;6915;48.296;8.874;2022-12-11T09:54:33;20.77;;;12.47;;
13685;SDS011;6915;48.296;8.874;2022-12-11T09:57:12;20.17;;;12.87;;
13685;SDS011;6915;48.296;8.874;2022-12-11T09:59:53;23.53;;;12.63;;
13685;SDS011;6915;48.296;8.874;2022-12-11T10:02:37;20.17;;;12.17;;
13685;SDS011;6915;48.296;8.874;2022-12-11T10:05:16;19.03;;;11.90;;
13685;SDS011;6915;48.296;8.874;2022-12-11T10:07:52;19.80;;;12.73;;
13685;SDS011;6915;48.296;8.874;2022-12-11T10:10:31;19.27;;;12.03;;
13685;SDS011;6915;48.296;8.874;2022-12-11T10:13:09;18.13;;;12.40;;
13685;SDS011;6915;48.296;8.874;2022-12-11T10:15:48;19.33;;;12.33;;
13685;SDS011;6915;48.296;8.874;2022-12-11T10:18:21;19.47;;;12.03;;
13685;SDS011;6915;48.296;8.874;2022-12-11T10:20:53;19.00;;;11.90;;
13685;SDS011;6915;48.296;8.874;2022-12-11T10:23:23;20.37;;;12.77;;
13685;SDS011;6915;48.296;8.874;2022-12-11T10:26:03;17.80;;;12.13;;
13685;SDS011;6915;48.296;8.874;2022-12-11T10:28:36;18.63;;;12.37;;
13685;SDS011;6915;48.296;8.874;2022-12-11T10:31:08;20.80;;;12.33;;
13685;SDS011;6915;48.296;8.874;2022-12-11T10:33:42;18.97;;;12.07;;
13685;SDS011;6915;48.296;8.874;2022-12-11T10:36:19;19.00;;;12.27;;
13685;SDS011;6915;48.296;8.874;2022-12-11T10:38:52;19.80;;;12.17;;
13685;SDS011;6915;48.296;8.874;2022-12-11T10:41:23;20.40;;;12.57;;
13685;SDS011;6915;48.296;8.874;2022-12-11T10:43:58;18.27;;;12.00;;
13685;SDS011;6915;48.296;8.874;2022-12-11T10:46:39;19.23;;;11.97;;
13685;SDS011;6915;48.296;8.874;2022-12-11T10:49:17;16.00;;;11.03;;
13685;SDS011;6915;48.296;8.874;2022-12-11T10:51:46;16.10;;;10.30;;
13685;SDS011;6915;48.296;8.874;2022-12-11T10:54:16;15.73;;;9.87;;
13685;SDS011;6915;48.296;8.874;2022-12-11T10:56:56;15.67;;;9.80;;
13685;SDS011;6915;48.296;8.874;2022-12-11T10:59:29;15.43;;;9.40;;
13685;SDS011;6915;48.296;8.874;2022-12-11T11:01:59;12.57;;;8.90;;
13685;SDS011;6915;48.296;8.874;2022-12-11T11:04:30;14.00;;;8.97;;
13685;SDS011;6915;48.296;8.874;2022-12-11T11:07:02;13.30;;;8.57;;
13685;SDS011;6915;48.296;8.874;2022-12-11T11:09:37;11.20;;;7.57;;
13685;SDS011;6915;48.296;8.874;2022-12-11T11:12:18;11.67;;;8.20;;
13685;SDS011;6915;48.296;8.874;2022-12-11T11:14:59;11.27;;;7.83;;
13685;SDS011;6915;48.296;8.874;2022-12-11T11:17:30;11.63;;;8.27;;
13685;SDS011;6915;48.296;8.874;2022-12-11T11:20:11;13.00;;;7.80;;
13685;SDS011;6915;48.296;8.874;2022-12-11T11:22:41;11.53;;;8.03;;
13685;SDS011;6915;48.296;8.874;2022-12-11T11:25:15;12.10;;;8.00;;
13685;SDS011;6915;48.296;8.874;2022-12-11T11:27:48;9.57;;;7.00;;
13685;SDS011;6915;48.296;8.874;2022-12-11T11:30:18;12.63;;;7.87;;
13685;SDS011;6915;48.296;8.874;2022-12-11T11:32:49;11.20;;;7.40;;
13685;SDS011;6915;48.296;8.874;2022-12-11T11:35:20;11.83;;;7.50;;
13685;SDS011;6915;48.296;8.874;2022-12-11T11:37:59;11.63;;;7.37;;
13685;SDS011;6915;48.296;8.874;2022-12-11T11:40:32;12.50;;;7.80;;
13685;SDS011;6915;48.296;8.874;2022-12-11T11:43:06;9.60;;;7.20;;
13685;SDS011;6915;48.296;8.874;2022-12-11T11:45:42;10.13;;;6.77;;
13685;SDS011;6915;48.296;8.874;2022-12-11T11:48:21;10.30;;;6.93;;
13685;SDS011;6915;48.296;8.874;2022-12-11T11:50:55;10.13;;;6.50;;
13685;SDS011;6915;48.296;8.874;2022-12-11T11:53:29;10.73;;;7.03;;
13685;SDS011;6915;48.296;8.874;2022-12-11T11:56:06;9.47;;;6.20;;
13685;SDS011;6915;48.296;8.874;2022-12-11T11:58:48;8.53;;;6.07;;
13685;SDS011;6915;48.296;8.874;2022-12-11T12:01:23;8.17;;;6.17;;
13685;SDS011;6915;48.296;8.874;2022-12-11T12:03:52;9.17;;;6.70;;
13685;SDS011;6915;48.296;8.874;2022-12-11T12:06:30;9.00;;;6.23;;
13685;SDS011;6915;48.296;8.874;2022-12-11T12:09:09;9.63;;;6.90;;
13685;SDS011;6915;48.296;8.874;2022-12-11T12:11:44;10.20;;;6.90;;
13685;SDS011;6915;48.296;8.874;2022-12-11T12:14:19;9.40;;;6.63;;
13685;SDS011;6915;48.296;8.874;2022-12-11T12:16:56;7.20;;;5.83;;
13685;SDS011;6915;48.296;8.874;2022-12-11T12:19:34;8.33;;;5.93;;
13685;SDS011;6915;48.296;8.874;2022-12-11T12:22:13;7.60;;;6.10;;
13685;SDS011;6915;48.296;8.874;2022-12-11T12:24:58;11.27;;;6.80;;
13685;SDS011;6915;48.296;8.874;2022-12-11T12:27:34;8.70;;;6.23;;
13685;SDS011;6915;48.296;8.874;2022-12-11T12:30:13;8.03;;;6.17;;
13685;SDS011;6915;48.296;8.874;2022-12-11T12:32:45;9.13;;;6.50;;
13685;SDS011;6915;48.296;8.874;2022-12-11T12:35:25;9.70;;;6.67;;
13685;SDS011;6915;48.296;8.874;2022-12-11T12:38:02;7.43;;;5.60;;
13685;SDS011;6915;48.296;8.874;2022-12-11T12:40:35;8.43;;;5.80;;
13685;SDS011;6915;48.296;8.874;2022-12-11T12:43:25;8.87;;;6.13;;
13685;SDS011;6915;48.296;8.874;2022-12-11T12:46:06;8.87;;;6.10;;
13685;SDS011;6915;48.296;8.874;2022-12-11T12:48:44;8.13;;;6.03;;
13685;SDS011;6915;48.296;8.874;2022-12-11T12:51:14;9.37;;;5.77;;
13685;SDS011;6915;48.296;8.874;2022-12-11T12:53:53;8.37;;;5.70;;
13685;SDS011;6915;48.296;8.874;2022-12-11T12:56:24;7.77;;;5.50;;
13685;SDS011;6915;48.296;8.874;2022-12-11T12:58:56;13.40;;;7.90;;
13685;SDS011;6915;48.296;8.874;2022-12-11T13:01:27;57.13;;;24.83;;
13685;SDS011;6915;48.296;8.874;2022-12-11T13:03:58;8.13;;;6.03;;
13685;SDS011;6915;48.296;8.874;2022-12-11T13:06:30;10.27;;;7.20;;
13685;SDS011;6915;48.296;8.874;2022-12-11T13:09:09;6.97;;;4.70;;
13685;SDS011;6915;48.296;8.874;2022-12-11T13:11:41;8.83;;;5.20;;
13685;SDS011;6915;48.296;8.874;2022-12-11T13:14:21;7.97;;;5.40;;
13685;SDS011;6915;48.296;8.874;2022-12-11T13:17:03;7.00;;;5.07;;
13685;SDS011;6915;48.296;8.874;2022-12-11T13:19:34;5.97;;;4.80;;
13685;SDS011;6915;48.296;8.874;2022-12-11T13:22:16;6.63;;;4.80;;
13685;SDS011;6915;48.296;8.874;2022-12-11T13:24:47;6.73;;;4.17;;
13685;SDS011;6915;48.296;8.874;2022-12-11T13:27:24;10.97;;;7.90;;
13685;SDS011;6915;48.296;8.874;2022-12-11T13:30:03;8.00;;;5.07;;
13685;SDS011;6915;48.296;8.874;2022-12-11T13:32:33;5.83;;;4.80;;
13685;SDS011;6915;48.296;8.874;2022-12-11T13:35:03;6.37;;;4.70;;
13685;SDS011;6915;48.296;8.874;2022-12-11T13:37:39;7.27;;;5.00;;
13685;SDS011;6915;48.296;8.874;2022-12-11T13:40:13;6.23;;;4.90;;
13685;SDS011;6915;48.296;8.874;2022-12-11T13:42:47;7.63;;;4.60;;
13685;SDS011;6915;48.296;8.874;2022-12-11T13:45:18;6.77;;;4.93;;
13685;SDS011;6915;48.296;8.874;2022-12-11T13:47:53;8.43;;;5.10;;
13685;SDS011;6915;48.296;8.874;2022-12-11T13:50:24;5.87;;;4.37;;
13685;SDS011;6915;48.296;8.874;2022-12-11T13:52:56;7.47;;;4.70;;
13685;SDS011;6915;48.296;8.874;2022-12-11T13:55:26;6.50;;;4.57;;
13685;SDS011;6915;48.296;8.874;2022-12-11T13:57:56;6.67;;;4.27;;
13685;SDS011;6915;48.296;8.874;2022-12-11T14:00:26;5.10;;;4.13;;
13685;SDS011;6915;48.296;8.874;2022-12-11T14:02:59;5.23;;;3.93;;
13685;SDS011;6915;48.296;8.874;2022-12-11T14:05:32;5.53;;;3.80;;
13685;SDS011;6915;48.296;8.874;2022-12-11T14:08:02;5.27;;;4.40;;
13685;SDS011;6915;48.296;8.874;2022-12-11T14:10:35;7.30;;;4.40;;
13685;SDS011;6915;48.296;8.874;2022-12-11T14:13:12;7.17;;;5.27;;
13685;SDS011;6915;48.296;8.874;2022-12-11T14:15:47;7.03;;;5.13;;
13685;SDS011;6915;48.296;8.874;2022-12-11T14:18:19;6.17;;;4.60;;
13685;SDS011;6915;48.296;8.874;2022-12-11T14:20:52;7.37;;;5.07;;
13685;SDS011;6915;48.296;8.874;2022-12-11T14:23:23;6.00;;;4.40;;
13685;SDS011;6915;48.296;8.874;2022-12-11T14:25:54;5.97;;;4.67;;
13685;SDS011;6915;48.296;8.874;2022-12-11T14:28:25;8.47;;;5.17;;
13685;SDS011;6915;48.296;8.874;2022-12-11T14:30:55;7.30;;;5.27;;
13685;SDS011;6915;48.296;8.874;2022-12-11T14:33:31;6.37;;;5.13;;
13685;SDS011;6915;48.296;8.874;2022-12-11T14:36:02;6.87;;;5.00;;
13685;SDS011;6915;48.296;8.874;2022-12-11T14:38:32;7.37;;;5.00;;
13685;SDS011;6915;48.296;8.874;2022-12-11T14:41:04;6.40;;;4.70;;
13685;SDS011;6915;48.296;8.874;2022-12-11T14:43:40;7.60;;;5.10;;
13685;SDS011;6915;48.296;8.874;2022-12-11T14:46:15;6.97;;;4.97;;
13685;SDS011;6915;48.296;8.874;2022-12-11T14:48:49;5.93;;;4.83;;
13685;SDS011;6915;48.296;8.874;2022-12-11T14:51:21;6.27;;;4.93;;
13685;SDS011;6915;48.296;8.874;2022-12-11T14:53:53;6.23;;;4.40;;
13685;SDS011;6915;48.296;8.874;2022-12-11T14:56:23;6.07;;;4.80;;
13685;SDS011;6915;48.296;8.874;2022-12-11T14:58:54;8.53;;;5.30;;
13685;SDS011;6915;48.296;8.874;2022-12-11T15:01:28;8.40;;;5.37;;
13685;SDS011;6915;48.296;8.874;2022-12-11T15:04:05;9.03;;;6.07;;
13685;SDS011;6915;48.296;8.874;2022-12-11T15:06:48;4.87;;;4.33;;
13685;SDS011;6915;48.296;8.874;2022-12-11T15:09:18;5.23;;;4.43;;
13685;SDS011;6915;48.296;8.874;2022-12-11T15:11:51;8.40;;;4.87;;
13685;SDS011;6915;48.296;8.874;2022-12-11T15:14:21;7.37;;;4.60;;
13685;SDS011;6915;48.296;8.874;2022-12-11T15:16:52;6.97;;;4.50;;